createdAt,value
2022-08-11T00:00:35.623Z,68.38
2022-08-11T00:01:11.806Z,68.12
2022-08-11T00:01:52.572Z,68.08
2022-08-11T00:02:28.501Z,68.02
2022-08-11T00:03:06.315Z,68.00
2022-08-11T00:03:47.357Z,68.34
2022-08-11T00:04:23.888Z,67.99
2022-08-11T00:05:01.500Z,68.45
2022-08-11T00:05:46.977Z,68.06
2022-08-11T00:06:29.254Z,68.02
2022-08-11T00:07:07.010Z,68.19
2022-08-11T00:07:45.078Z,67.80
2022-08-11T00:08:25.430Z,67.86
2022-08-11T00:09:00.788Z,67.96
2022-08-11T00:09:39.396Z,68.11
2022-08-11T00:10:14.106Z,68.51
2022-08-11T00:10:55.778Z,68.09
2022-08-11T00:11:37.457Z,68.03
2022-08-11T00:12:17.130Z,68.23
2022-08-11T00:12:53.478Z,68.37
2022-08-11T00:13:36.243Z,67.89
2022-08-11T00:14:15.882Z,67.99
2022-08-11T00:14:57.825Z,68.10
2022-08-11T00:15:49.157Z,68.14
2022-08-11T00:16:24.306Z,68.37
2022-08-11T00:16:58.538Z,68.08
2022-08-11T00:17:36.737Z,68.29
2022-08-11T00:18:10.270Z,68.44
2022-08-11T00:18:44.912Z,68.21
2022-08-11T00:20:14.652Z,68.18
2022-08-11T00:20:18.310Z,68.63
2022-08-11T00:20:51.870Z,68.47
2022-08-11T00:21:35.486Z,68.20
2022-08-11T00:22:24.404Z,68.59
2022-08-11T00:23:05.565Z,68.67
2022-08-11T00:23:42.766Z,68.88
2022-08-11T00:24:16.407Z,68.49
2022-08-11T00:24:55.095Z,68.41
2022-08-11T00:25:30.215Z,68.48
2022-08-11T00:26:08.551Z,68.45
2022-08-11T00:26:43.399Z,68.71
2022-08-11T00:27:15.704Z,68.79
2022-08-11T00:27:51.640Z,68.90
2022-08-11T00:28:26.993Z,68.64
2022-08-11T00:29:09.297Z,68.72
2022-08-11T00:29:51.774Z,68.72
2022-08-11T00:30:24.314Z,69.01
2022-08-11T00:31:01.705Z,69.05
2022-08-11T00:31:38.296Z,68.66
2022-08-11T00:32:15.716Z,68.99
2022-08-11T00:32:59.083Z,68.62
2022-08-11T00:33:44.119Z,69.12
2022-08-11T00:34:20.856Z,69.09
2022-08-11T00:35:53.604Z,69.13
2022-08-11T00:35:56.959Z,68.87
2022-08-11T00:36:45.781Z,69.34
2022-08-11T00:37:20.765Z,69.14
2022-08-11T00:37:58.984Z,68.95
2022-08-11T00:38:34.592Z,68.63
2022-08-11T00:39:10.674Z,69.05
2022-08-11T00:39:47.703Z,68.75
2022-08-11T00:40:29.235Z,68.53
2022-08-11T00:41:11.312Z,68.52
2022-08-11T00:41:58.407Z,68.74
2022-08-11T00:42:54.251Z,68.64
2022-08-11T00:43:50.234Z,68.94
2022-08-11T00:44:32.825Z,68.68
2022-08-11T00:45:15.923Z,68.61
2022-08-11T00:46:09.482Z,68.99
2022-08-11T00:46:56.095Z,69.01
2022-08-11T00:47:43.212Z,68.84
2022-08-11T00:48:28.009Z,68.71
2022-08-11T00:49:14.265Z,68.48
2022-08-11T00:50:01.523Z,68.49
2022-08-11T00:50:43.402Z,68.58
2022-08-11T00:51:25.671Z,68.95
2022-08-11T00:52:16.387Z,68.93
2022-08-11T00:52:59.596Z,68.95
2022-08-11T00:53:41.732Z,68.91
2022-08-11T00:54:33.190Z,68.92
2022-08-11T00:55:33.494Z,68.59
2022-08-11T00:56:33.464Z,68.87
2022-08-11T00:57:37.111Z,69.04
2022-08-11T00:58:40.641Z,68.51
2022-08-11T01:00:03.779Z,68.98
2022-08-11T01:00:54.080Z,69.05
2022-08-11T01:01:47.097Z,69.02
2022-08-11T01:02:30.737Z,69.00
2022-08-11T01:03:35.836Z,68.89
2022-08-11T01:04:23.887Z,68.95
2022-08-11T01:05:38.203Z,68.53
2022-08-11T01:06:38.612Z,68.62
2022-08-11T01:08:00.600Z,68.49
2022-08-11T01:09:04.411Z,68.55
2022-08-11T01:10:06.972Z,68.60
2022-08-11T01:11:08.777Z,68.46
2022-08-11T01:12:21.598Z,68.92
2022-08-11T01:13:16.224Z,68.83
2022-08-11T01:14:34.467Z,69.12
2022-08-11T01:15:32.731Z,68.67
2022-08-11T01:16:49.629Z,69.07
2022-08-11T01:18:10.496Z,68.60
2022-08-11T01:19:05.498Z,68.59
2022-08-11T01:20:39.442Z,69.05
2022-08-11T01:21:35.883Z,68.64
2022-08-11T01:22:40.373Z,68.75
2022-08-11T01:24:03.855Z,68.80
2022-08-11T01:25:18.531Z,69.01
2022-08-11T01:26:29.018Z,68.83
2022-08-11T01:27:20.976Z,68.91
2022-08-11T01:28:29.451Z,69.05
2022-08-11T01:29:49.590Z,69.21
2022-08-11T01:30:56.777Z,69.40
2022-08-11T01:32:01.820Z,69.12
2022-08-11T01:33:20.710Z,69.26
2022-08-11T01:34:27.714Z,69.36
2022-08-11T01:35:43.525Z,69.19
2022-08-11T01:36:56.852Z,69.44
2022-08-11T01:38:01.679Z,69.42
2022-08-11T01:39:09.488Z,69.39
2022-08-11T01:40:18.168Z,69.79
2022-08-11T01:41:23.023Z,69.95
2022-08-11T01:42:33.065Z,69.95
2022-08-11T01:44:12.502Z,70.05
2022-08-11T01:45:19.353Z,70.05
2022-08-11T01:45:55.719Z,70.17
2022-08-11T01:46:33.156Z,69.74
2022-08-11T01:47:38.539Z,69.60
2022-08-11T01:48:45.926Z,70.23
2022-08-11T01:50:07.141Z,69.66
2022-08-11T01:50:28.067Z,70.33
2022-08-11T01:51:20.438Z,70.04
2022-08-11T01:52:16.300Z,69.84
2022-08-11T01:53:04.322Z,70.38
2022-08-11T01:53:55.760Z,70.29
2022-08-11T01:54:37.449Z,70.19
2022-08-11T01:55:16.019Z,69.99
2022-08-11T01:55:58.116Z,70.19
2022-08-11T01:56:40.531Z,70.20
2022-08-11T01:57:34.627Z,70.57
2022-08-11T01:58:16.437Z,70.53
2022-08-11T01:58:58.250Z,70.15
2022-08-11T01:59:39.650Z,70.32
2022-08-11T02:00:16.532Z,70.28
2022-08-11T02:00:58.446Z,70.32
2022-08-11T02:01:50.528Z,70.39
2022-08-11T02:02:47.722Z,70.57
2022-08-11T02:03:29.823Z,70.81
2022-08-11T02:04:21.148Z,70.67
2022-08-11T02:04:59.659Z,70.61
2022-08-11T02:06:01.402Z,70.35
2022-08-11T02:06:58.397Z,70.48
2022-08-11T02:07:38.818Z,70.66
2022-08-11T02:08:18.962Z,70.88
2022-08-11T02:08:59.221Z,71.07
2022-08-11T02:10:35.561Z,70.95
2022-08-11T02:11:31.583Z,71.09
2022-08-11T02:12:16.654Z,70.99
2022-08-11T02:12:55.860Z,71.23
2022-08-11T02:13:37.343Z,71.08
2022-08-11T02:14:22.499Z,71.19
2022-08-11T02:15:05.328Z,71.36
2022-08-11T02:15:46.627Z,71.11
2022-08-11T02:16:39.556Z,71.16
2022-08-11T02:17:19.379Z,71.26
2022-08-11T02:18:03.557Z,71.10
2022-08-11T02:18:54.300Z,71.40
2022-08-11T02:19:53.733Z,71.38
2022-08-11T02:20:45.711Z,71.49
2022-08-11T02:21:47.419Z,71.44
2022-08-11T02:22:45.737Z,71.54
2022-08-11T02:24:07.016Z,71.44
2022-08-11T02:24:41.661Z,71.42
2022-08-11T02:25:26.784Z,71.56
2022-08-11T02:26:05.960Z,71.85
2022-08-11T02:26:42.166Z,71.62
2022-08-11T02:27:23.435Z,71.77
2022-08-11T02:28:04.881Z,71.78
2022-08-11T02:28:51.507Z,71.77
2022-08-11T02:29:32.453Z,71.66
2022-08-11T02:30:08.553Z,71.72
2022-08-11T02:32:08.338Z,71.81
2022-08-11T02:32:30.744Z,71.77
2022-08-11T02:33:27.896Z,71.57
2022-08-11T02:34:12.475Z,71.64
2022-08-11T02:35:00.221Z,71.84
2022-08-11T02:35:48.387Z,71.74
2022-08-11T02:36:28.199Z,71.66
2022-08-11T02:37:16.225Z,71.96
2022-08-11T02:38:11.333Z,71.63
2022-08-11T02:38:52.073Z,71.77
2022-08-11T02:39:41.149Z,71.94
2022-08-11T02:40:23.433Z,71.88
2022-08-11T02:41:25.592Z,72.06
2022-08-11T02:42:35.115Z,72.08
2022-08-11T02:43:19.159Z,71.80
2022-08-11T02:44:17.675Z,71.77
2022-08-11T02:45:00.110Z,72.07
2022-08-11T02:45:50.177Z,72.02
2022-08-11T02:46:31.761Z,72.24
2022-08-11T02:47:14.071Z,71.92
2022-08-11T02:48:14.628Z,71.84
2022-08-11T02:49:13.152Z,72.01
2022-08-11T02:50:00.071Z,71.87
2022-08-11T02:50:49.462Z,71.97
2022-08-11T02:51:32.804Z,72.17
2022-08-11T02:52:08.960Z,72.31
2022-08-11T02:52:53.815Z,72.08
2022-08-11T02:53:32.249Z,72.14
2022-08-11T02:54:18.183Z,71.81
2022-08-11T02:55:02.045Z,71.78
2022-08-11T02:55:57.349Z,72.11
2022-08-11T02:56:44.739Z,72.15
2022-08-11T02:57:25.349Z,72.33
2022-08-11T02:58:03.935Z,72.15
2022-08-11T02:58:44.570Z,72.28
2022-08-11T02:59:40.892Z,72.46
2022-08-11T03:00:18.250Z,72.11
2022-08-11T03:00:57.429Z,72.27
2022-08-11T03:01:41.114Z,72.56
2022-08-11T03:02:24.818Z,72.14
2022-08-11T03:03:16.572Z,72.51
2022-08-11T03:03:58.108Z,72.18
2022-08-11T03:04:38.082Z,72.72
2022-08-11T03:05:27.719Z,72.50
2022-08-11T03:06:12.667Z,72.57
2022-08-11T03:06:52.805Z,72.45
2022-08-11T03:07:33.631Z,72.90
2022-08-11T03:08:18.807Z,72.37
2022-08-11T03:08:56.658Z,72.95
2022-08-11T03:09:49.663Z,73.00
2022-08-11T03:10:25.748Z,72.57
2022-08-11T03:11:20.462Z,72.88
2022-08-11T03:12:17.637Z,72.46
2022-08-11T03:13:09.748Z,73.00
2022-08-11T03:14:04.472Z,72.69
2022-08-11T03:15:02.383Z,73.17
2022-08-11T03:16:03.426Z,72.86
2022-08-11T03:16:49.532Z,72.97
2022-08-11T03:17:30.918Z,73.01
2022-08-11T03:18:28.554Z,73.11
2022-08-11T03:19:12.044Z,73.56
2022-08-11T03:19:55.397Z,73.04
2022-08-11T03:20:39.310Z,73.47
2022-08-11T03:21:21.367Z,73.23
2022-08-11T03:22:13.255Z,73.20
2022-08-11T03:23:01.918Z,72.92
2022-08-11T03:23:39.706Z,72.91
2022-08-11T03:24:19.323Z,72.68
2022-08-11T03:25:04.637Z,72.86
2022-08-11T03:25:46.564Z,72.82
2022-08-11T03:26:26.370Z,72.82
2022-08-11T03:27:12.475Z,73.06
2022-08-11T03:27:53.700Z,72.88
2022-08-11T03:28:35.085Z,72.83
2022-08-11T03:29:18.394Z,73.02
2022-08-11T03:30:16.090Z,73.05
2022-08-11T03:30:57.191Z,72.73
2022-08-11T03:31:35.094Z,73.00
2022-08-11T03:32:14.512Z,72.78
2022-08-11T03:33:20.354Z,73.27
2022-08-11T03:34:07.600Z,73.36
2022-08-11T03:34:44.923Z,73.00
2022-08-11T03:35:21.617Z,73.12
2022-08-11T03:36:13.001Z,72.70
2022-08-11T03:37:39.815Z,72.96
2022-08-11T03:38:15.663Z,73.09
2022-08-11T03:39:00.378Z,73.31
2022-08-11T03:39:56.096Z,72.90
2022-08-11T03:40:59.544Z,73.22
2022-08-11T03:42:03.768Z,73.40
2022-08-11T03:42:47.697Z,72.92
2022-08-11T03:43:34.929Z,73.01
2022-08-11T03:44:27.847Z,73.01
2022-08-11T03:45:10.319Z,72.75
2022-08-11T03:46:00.447Z,72.83
2022-08-11T03:46:47.942Z,72.40
2022-08-11T03:47:53.415Z,72.40
2022-08-11T03:48:39.711Z,72.93
2022-08-11T03:49:28.281Z,72.51
2022-08-11T03:50:13.669Z,72.56
2022-08-11T03:51:04.754Z,72.53
2022-08-11T03:51:52.468Z,72.70
2022-08-11T03:52:40.874Z,72.60
2022-08-11T03:53:20.462Z,72.97
2022-08-11T03:54:07.165Z,72.60
2022-08-11T03:54:53.379Z,72.89
2022-08-11T03:55:40.220Z,72.66
2022-08-11T03:56:51.283Z,72.75
2022-08-11T03:57:59.518Z,73.03
2022-08-11T03:58:56.748Z,73.08
2022-08-11T04:00:04.212Z,72.89
2022-08-11T04:01:10.797Z,73.04
2022-08-11T04:02:15.411Z,73.05
2022-08-11T04:03:31.697Z,73.00
2022-08-11T04:04:39.455Z,73.20
2022-08-11T04:05:50.301Z,73.19
2022-08-11T04:06:52.528Z,73.72
2022-08-11T04:07:54.743Z,73.25
2022-08-11T04:09:02.337Z,73.34
2022-08-11T04:10:04.011Z,73.94
2022-08-11T04:11:11.356Z,73.79
2022-08-11T04:12:35.831Z,73.51
2022-08-11T04:14:20.942Z,73.77
2022-08-11T04:15:34.783Z,73.64
2022-08-11T04:16:44.721Z,73.77
2022-08-11T04:17:50.496Z,74.10
2022-08-11T04:18:57.830Z,73.99
2022-08-11T04:20:07.942Z,73.68
2022-08-11T04:21:14.247Z,73.32
2022-08-11T04:22:23.083Z,73.32
2022-08-11T04:23:13.388Z,73.80
2022-08-11T04:24:38.270Z,73.74
2022-08-11T04:25:57.863Z,73.56
2022-08-11T04:27:19.187Z,73.68
2022-08-11T04:28:28.661Z,73.46
2022-08-11T04:29:16.093Z,73.69
2022-08-11T04:30:05.839Z,73.65
2022-08-11T04:30:59.035Z,73.28
2022-08-11T04:31:50.634Z,73.53
2022-08-11T04:32:50.061Z,73.26
2022-08-11T04:33:41.445Z,73.82
2022-08-11T04:34:38.938Z,73.75
2022-08-11T04:35:25.141Z,73.30
2022-08-11T04:36:10.792Z,73.29
2022-08-11T04:37:25.265Z,73.59
2022-08-11T04:38:27.202Z,73.85
2022-08-11T04:39:20.278Z,74.07
2022-08-11T04:40:35.675Z,73.84
2022-08-11T04:41:32.181Z,73.39
2022-08-11T04:42:35.741Z,73.90
2022-08-11T04:44:02.143Z,73.67
2022-08-11T04:45:12.198Z,73.57
2022-08-11T04:46:28.680Z,73.59
2022-08-11T04:48:03.939Z,73.95
2022-08-11T04:49:33.073Z,73.40
2022-08-11T04:50:38.015Z,73.69
2022-08-11T04:51:46.047Z,73.86
2022-08-11T04:53:09.398Z,73.62
2022-08-11T04:54:11.611Z,73.46
2022-08-11T04:55:13.424Z,73.88
2022-08-11T04:56:21.047Z,73.57
2022-08-11T04:57:18.846Z,73.84
2022-08-11T04:58:19.603Z,73.71
2022-08-11T04:59:48.316Z,73.64
2022-08-11T05:00:37.341Z,73.73
2022-08-11T05:01:39.567Z,73.61
2022-08-11T05:02:58.933Z,73.91
2022-08-11T05:04:04.573Z,74.02
2022-08-11T05:05:05.795Z,73.61
2022-08-11T05:06:13.592Z,73.34
2022-08-11T05:07:27.373Z,73.45
2022-08-11T05:08:40.874Z,73.90
2022-08-11T05:09:29.140Z,73.26
2022-08-11T05:10:17.409Z,73.55
2022-08-11T05:11:03.827Z,73.28
2022-08-11T05:12:04.210Z,73.11
2022-08-11T05:12:42.590Z,73.66
2022-08-11T05:13:43.654Z,73.50
2022-08-11T05:14:50.008Z,73.32
2022-08-11T05:15:51.638Z,73.57
2022-08-11T05:16:44.922Z,73.50
2022-08-11T05:17:42.888Z,73.56
2022-08-11T05:18:32.742Z,73.53
2022-08-11T05:19:20.400Z,73.46
2022-08-11T05:20:07.518Z,73.01
2022-08-11T05:21:04.973Z,73.30
2022-08-11T05:21:55.316Z,72.82
2022-08-11T05:22:45.971Z,73.01
2022-08-11T05:23:35.957Z,73.48
2022-08-11T05:24:32.433Z,73.44
2022-08-11T05:26:44.735Z,73.24
2022-08-11T05:26:46.250Z,73.38
2022-08-11T05:27:42.780Z,72.92
2022-08-11T05:28:37.516Z,73.04
2022-08-11T05:29:41.063Z,72.78
2022-08-11T05:30:34.406Z,73.17
2022-08-11T05:31:27.720Z,72.99
2022-08-11T05:32:16.511Z,73.16
2022-08-11T05:33:12.827Z,72.91
2022-08-11T05:34:04.664Z,72.81
2022-08-11T05:34:53.625Z,72.66
2022-08-11T05:36:01.318Z,72.99
2022-08-11T05:36:31.345Z,73.15
2022-08-11T05:37:25.605Z,73.16
2022-08-11T05:38:15.105Z,73.06
2022-08-11T05:39:11.814Z,72.74
2022-08-11T05:40:02.398Z,72.80
2022-08-11T05:40:51.143Z,72.68
2022-08-11T05:41:47.640Z,72.76
2022-08-11T05:42:38.728Z,72.86
2022-08-11T05:43:29.059Z,73.05
2022-08-11T05:44:21.311Z,72.64
2022-08-11T05:45:15.708Z,72.72
2022-08-11T05:46:16.468Z,72.56
2022-08-11T05:47:04.607Z,72.87
2022-08-11T05:47:52.639Z,72.25
2022-08-11T05:48:47.492Z,72.46
2022-08-11T05:49:34.891Z,72.36
2022-08-11T05:50:32.867Z,72.24
2022-08-11T05:51:30.010Z,72.41
2022-08-11T05:52:19.351Z,72.20
2022-08-11T05:53:09.247Z,72.04
2022-08-11T05:54:02.399Z,72.13
2022-08-11T05:54:50.160Z,71.97
2022-08-11T05:56:02.140Z,72.46
2022-08-11T05:56:43.716Z,72.06
2022-08-11T05:57:39.550Z,71.82
2022-08-11T05:58:17.900Z,72.04
2022-08-11T05:58:52.113Z,72.36
2022-08-11T05:59:28.488Z,71.76
2022-08-11T06:00:05.360Z,71.94
2022-08-11T06:00:46.794Z,71.96
2022-08-11T06:01:26.935Z,71.92
2022-08-11T06:02:05.882Z,71.87
2022-08-11T06:02:42.662Z,71.60
2022-08-11T06:03:25.623Z,71.74
2022-08-11T06:04:17.220Z,71.68
2022-08-11T06:04:57.289Z,71.35
2022-08-11T06:05:38.479Z,71.69
2022-08-11T06:06:16.202Z,71.51
2022-08-11T06:06:51.473Z,71.48
2022-08-11T06:07:47.336Z,71.13
2022-08-11T06:08:30.081Z,71.05
2022-08-11T06:09:05.674Z,71.30
2022-08-11T06:09:47.135Z,71.08
2022-08-11T06:10:33.346Z,71.06
2022-08-11T06:11:06.577Z,70.71
2022-08-11T06:11:43.173Z,70.66
2022-08-11T06:12:24.311Z,70.82
2022-08-11T06:12:58.539Z,70.38
2022-08-11T06:13:31.610Z,70.26
2022-08-11T06:14:06.499Z,70.29
2022-08-11T06:14:46.463Z,70.03
2022-08-11T06:15:18.751Z,69.91
2022-08-11T06:15:53.112Z,69.97
2022-08-11T06:16:30.930Z,69.66
2022-08-11T06:17:06.684Z,69.83
2022-08-11T06:17:48.575Z,69.30
2022-08-11T06:18:21.393Z,69.07
2022-08-11T06:18:54.355Z,69.18
2022-08-11T06:19:41.343Z,68.97
2022-08-11T06:20:19.129Z,68.75
2022-08-11T06:20:54.305Z,69.00
2022-08-11T06:21:30.303Z,68.73
2022-08-11T06:22:04.730Z,68.78
2022-08-11T06:22:37.593Z,68.50
2022-08-11T06:23:15.209Z,68.68
2022-08-11T06:23:48.598Z,68.51
2022-08-11T06:24:21.500Z,68.16
2022-08-11T06:25:00.748Z,68.43
2022-08-11T06:25:35.996Z,68.23
2022-08-11T06:26:10.086Z,67.98
2022-08-11T06:27:45.860Z,68.13
2022-08-11T06:28:22.821Z,67.85
2022-08-11T06:28:59.700Z,67.95
2022-08-11T06:29:37.815Z,67.84
2022-08-11T06:30:23.630Z,67.66
2022-08-11T06:30:56.586Z,67.69
2022-08-11T06:31:34.542Z,67.41
2022-08-11T06:32:09.742Z,67.42
2022-08-11T06:32:45.027Z,67.18
2022-08-11T06:33:24.426Z,67.10
2022-08-11T06:34:07.929Z,67.36
2022-08-11T06:34:59.443Z,67.54
2022-08-11T06:35:46.050Z,67.28
2022-08-11T06:36:31.071Z,67.40
2022-08-11T06:37:22.944Z,67.82
2022-08-11T06:38:09.078Z,67.64
2022-08-11T06:38:58.774Z,67.53
2022-08-11T06:39:46.794Z,68.02
2022-08-11T06:40:31.594Z,67.77
2022-08-11T06:41:27.707Z,68.04
2022-08-11T06:42:09.871Z,67.60
2022-08-11T06:42:54.094Z,67.67
2022-08-11T06:43:33.078Z,67.99
2022-08-11T06:44:16.970Z,67.56
2022-08-11T06:45:05.233Z,67.91
2022-08-11T06:45:47.141Z,67.44
2022-08-11T06:46:31.197Z,67.70
2022-08-11T06:47:12.215Z,67.94
2022-08-11T06:47:47.831Z,67.79
2022-08-11T06:48:25.986Z,67.95
2022-08-11T06:49:02.796Z,67.85
2022-08-11T06:49:55.025Z,67.87
2022-08-11T06:50:43.819Z,67.92
2022-08-11T06:51:17.128Z,68.09
2022-08-11T06:51:50.333Z,68.31
2022-08-11T06:52:35.181Z,68.24
2022-08-11T06:53:13.269Z,68.04
2022-08-11T06:53:56.272Z,68.22
2022-08-11T06:54:44.384Z,68.06
2022-08-11T06:55:56.569Z,68.21
2022-08-11T06:56:57.362Z,68.14
2022-08-11T06:57:56.795Z,68.49
2022-08-11T06:58:47.681Z,68.32
2022-08-11T06:59:37.349Z,68.53
2022-08-11T07:00:27.476Z,68.38
2022-08-11T07:01:07.314Z,68.13
2022-08-11T07:01:59.218Z,68.27
2022-08-11T07:02:40.414Z,68.30
2022-08-11T07:03:17.570Z,68.05
2022-08-11T07:04:00.303Z,68.25
2022-08-11T07:04:44.312Z,68.44
2022-08-11T07:05:22.825Z,68.23
2022-08-11T07:06:08.196Z,68.50
2022-08-11T07:07:11.156Z,68.52
2022-08-11T07:08:34.641Z,68.49
2022-08-11T07:09:45.194Z,68.62
2022-08-11T07:11:03.193Z,68.58
2022-08-11T07:12:23.213Z,68.95
2022-08-11T07:13:44.587Z,69.01
2022-08-11T07:14:22.397Z,68.70
2022-08-11T07:15:11.780Z,68.62
2022-08-11T07:16:10.585Z,68.69
2022-08-11T07:16:45.878Z,68.60
2022-08-11T07:17:25.314Z,68.73
2022-08-11T07:18:21.874Z,68.79
2022-08-11T07:19:16.599Z,68.71
2022-08-11T07:20:09.293Z,68.73
2022-08-11T07:22:01.794Z,69.23
2022-08-11T07:22:18.581Z,69.38
2022-08-11T07:23:10.584Z,69.31
2022-08-11T07:23:57.979Z,69.53
2022-08-11T07:25:01.470Z,69.10
2022-08-11T07:25:55.035Z,69.59
2022-08-11T07:26:43.218Z,69.37
2022-08-11T07:27:35.758Z,69.90
2022-08-11T07:28:29.735Z,69.71
2022-08-11T07:29:06.151Z,70.05
2022-08-11T07:29:39.421Z,70.11
2022-08-11T07:30:12.465Z,69.78
2022-08-11T07:30:48.106Z,69.58
2022-08-11T07:31:30.403Z,69.72
2022-08-11T07:32:13.260Z,70.45
2022-08-11T07:32:54.107Z,70.44
2022-08-11T07:34:07.984Z,70.27
2022-08-11T07:34:37.405Z,70.65
2022-08-11T07:35:13.355Z,70.86
2022-08-11T07:35:55.684Z,70.88
2022-08-11T07:36:30.724Z,70.89
2022-08-11T07:37:13.798Z,70.95
2022-08-11T07:38:01.730Z,71.46
2022-08-11T07:38:47.754Z,71.70
2022-08-11T07:39:22.627Z,72.41
2022-08-11T07:39:58.554Z,72.47
2022-08-11T07:40:31.153Z,72.63
2022-08-11T07:41:03.447Z,73.02
2022-08-11T07:41:39.305Z,73.17
2022-08-11T07:42:15.533Z,73.31
2022-08-11T07:42:50.935Z,73.94
2022-08-11T07:43:23.428Z,74.42
2022-08-11T07:44:09.407Z,74.35
2022-08-11T07:44:58.115Z,74.75
2022-08-11T07:45:46.583Z,75.44
2022-08-11T07:46:35.356Z,75.73
2022-08-11T07:47:22.848Z,76.04
2022-08-11T07:48:11.056Z,75.89
2022-08-11T07:49:01.454Z,76.28
2022-08-11T07:49:51.155Z,76.25
2022-08-11T07:50:39.517Z,76.48
2022-08-11T07:51:26.961Z,76.05
2022-08-11T07:52:14.852Z,75.84
2022-08-11T07:52:52.131Z,75.66
2022-08-11T07:53:26.788Z,75.62
2022-08-11T07:54:07.759Z,75.38
2022-08-11T07:54:51.794Z,75.05
2022-08-11T07:55:50.212Z,74.79
2022-08-11T07:56:21.775Z,74.63
2022-08-11T07:58:14.605Z,74.74
2022-08-11T07:58:31.613Z,74.59
2022-08-11T07:59:25.461Z,74.55
2022-08-11T08:00:33.738Z,74.41
2022-08-11T08:01:23.289Z,73.74
2022-08-11T08:02:11.104Z,73.91
2022-08-11T08:02:59.433Z,73.31
2022-08-11T08:03:54.167Z,73.14
2022-08-11T08:04:47.356Z,73.38
2022-08-11T08:05:36.054Z,73.27
2022-08-11T08:06:35.834Z,72.96
2022-08-11T08:07:23.786Z,73.02
2022-08-11T08:08:11.084Z,72.76
2022-08-11T08:08:59.521Z,72.81
2022-08-11T08:09:50.362Z,72.28
2022-08-11T08:10:38.846Z,72.42
2022-08-11T08:11:27.712Z,72.51
2022-08-11T08:12:17.340Z,72.23
2022-08-11T08:13:04.778Z,72.62
2022-08-11T08:13:53.229Z,72.67
2022-08-11T08:14:41.036Z,72.71
2022-08-11T08:15:29.995Z,72.56
2022-08-11T08:16:17.811Z,72.34
2022-08-11T08:17:05.215Z,72.56
2022-08-11T08:18:10.046Z,72.23
2022-08-11T08:18:49.752Z,72.59
2022-08-11T08:19:22.667Z,72.54
2022-08-11T08:20:00.252Z,72.28
2022-08-11T08:20:36.577Z,71.93
2022-08-11T08:21:12.561Z,71.76
2022-08-11T08:21:49.354Z,71.82
2022-08-11T08:22:38.097Z,71.57
2022-08-11T08:23:15.022Z,71.42
2022-08-11T08:23:54.034Z,71.48
2022-08-11T08:24:33.514Z,71.00
2022-08-11T08:25:07.791Z,70.81
2022-08-11T08:25:42.570Z,70.67
2022-08-11T08:26:31.529Z,70.95
2022-08-11T08:27:06.497Z,70.90
2022-08-11T08:27:40.153Z,70.83
2022-08-11T08:28:15.814Z,70.30
2022-08-11T08:28:51.010Z,70.78
2022-08-11T08:29:38.746Z,70.70
2022-08-11T08:30:27.943Z,70.58
2022-08-11T08:31:01.128Z,70.36
2022-08-11T08:31:33.600Z,70.47
2022-08-11T08:32:07.295Z,70.49
2022-08-11T08:32:41.885Z,69.83
2022-08-11T08:33:20.193Z,70.06
2022-08-11T08:33:52.962Z,69.86
2022-08-11T08:34:25.861Z,69.73
2022-08-11T08:35:04.482Z,70.00
2022-08-11T08:35:37.754Z,69.76
2022-08-11T08:36:29.613Z,70.15
2022-08-11T08:37:02.006Z,69.77
2022-08-11T08:37:45.837Z,69.54
2022-08-11T08:38:22.609Z,69.40
2022-08-11T08:38:54.927Z,69.49
2022-08-11T08:39:27.252Z,69.37
2022-08-11T08:40:02.747Z,69.45
2022-08-11T08:40:35.139Z,69.69
2022-08-11T08:41:08.624Z,69.64
2022-08-11T08:41:45.665Z,69.36
2022-08-11T08:42:21.481Z,69.44
2022-08-11T08:42:59.535Z,69.02
2022-08-11T08:43:33.112Z,69.63
2022-08-11T08:44:38.439Z,69.12
2022-08-11T08:45:16.448Z,69.20
2022-08-11T08:45:51.352Z,69.03
2022-08-11T08:46:30.643Z,68.92
2022-08-11T08:47:06.237Z,68.94
2022-08-11T08:47:44.833Z,68.84
2022-08-11T08:48:20.814Z,69.12
2022-08-11T08:48:56.846Z,68.97
2022-08-11T08:49:34.316Z,69.13
2022-08-11T08:50:19.745Z,68.69
2022-08-11T08:51:12.075Z,69.15
2022-08-11T08:51:54.850Z,68.50
2022-08-11T08:52:50.026Z,68.85
2022-08-11T08:53:29.302Z,68.69
2022-08-11T08:54:06.518Z,68.72
2022-08-11T08:54:40.789Z,68.64
2022-08-11T08:55:21.351Z,68.40
2022-08-11T08:55:56.893Z,68.53
2022-08-11T08:56:30.299Z,67.91
2022-08-11T08:57:06.848Z,67.80
2022-08-11T08:57:41.483Z,68.21
2022-08-11T08:58:15.998Z,67.50
2022-08-11T08:58:52.661Z,67.43
2022-08-11T08:59:27.139Z,67.58
2022-08-11T09:00:23.733Z,67.45
2022-08-11T09:00:58.741Z,67.51
2022-08-11T09:01:37.486Z,67.75
2022-08-11T09:02:14.263Z,67.51
2022-08-11T09:02:47.142Z,67.55
2022-08-11T09:03:41.053Z,67.72
2022-08-11T09:04:20.326Z,67.64
2022-08-11T09:04:56.210Z,67.65
2022-08-11T09:05:31.309Z,67.97
2022-08-11T09:06:06.499Z,67.63
2022-08-11T09:06:40.375Z,67.35
2022-08-11T09:07:18.285Z,67.46
2022-08-11T09:07:54.624Z,67.44
2022-08-11T09:08:29.981Z,67.79
2022-08-11T09:09:02.607Z,67.63
2022-08-11T09:09:36.092Z,67.65
2022-08-11T09:10:13.723Z,67.54
2022-08-11T09:10:47.580Z,67.34
2022-08-11T09:11:39.137Z,67.71
2022-08-11T09:12:13.149Z,67.77
2022-08-11T09:12:49.150Z,67.63
2022-08-11T09:13:21.523Z,67.59
2022-08-11T09:14:04.844Z,67.69
2022-08-11T09:14:54.734Z,67.92
2022-08-11T09:15:30.489Z,67.85
2022-08-11T09:16:04.798Z,68.34
2022-08-11T09:16:39.219Z,67.98
2022-08-11T09:17:14.578Z,68.37
2022-08-11T09:17:49.448Z,68.00
2022-08-11T09:18:24.295Z,68.10
2022-08-11T09:18:59.612Z,68.42
2022-08-11T09:19:32.057Z,67.88
2022-08-11T09:20:09.800Z,67.97
2022-08-11T09:20:45.285Z,67.91
2022-08-11T09:21:39.765Z,67.69
2022-08-11T09:22:34.559Z,68.09
2022-08-11T09:24:31.986Z,67.79
2022-08-11T09:25:20.031Z,67.31
2022-08-11T09:26:16.611Z,67.52
2022-08-11T09:27:04.188Z,67.16
2022-08-11T09:27:39.099Z,66.91
2022-08-11T09:28:26.665Z,66.54
2022-08-11T09:29:00.063Z,66.77
2022-08-11T09:29:35.922Z,66.76
2022-08-11T09:30:11.619Z,66.08
2022-08-11T09:30:48.743Z,66.10
2022-08-11T09:31:23.030Z,65.95
2022-08-11T09:31:58.845Z,66.04
2022-08-11T09:32:31.704Z,66.09
2022-08-11T09:33:08.735Z,66.34
2022-08-11T09:33:43.035Z,66.42
2022-08-11T09:34:18.347Z,66.24
2022-08-11T09:34:52.549Z,66.16
2022-08-11T09:35:28.116Z,66.12
2022-08-11T09:36:24.178Z,66.20
2022-08-11T09:37:28.463Z,65.96
2022-08-11T09:38:22.621Z,66.24
2022-08-11T09:39:11.705Z,66.30
2022-08-11T09:39:59.357Z,65.90
2022-08-11T09:40:34.214Z,66.06
2022-08-11T09:41:09.363Z,65.92
2022-08-11T09:42:01.424Z,65.58
2022-08-11T09:42:51.510Z,65.74
2022-08-11T09:43:40.969Z,65.49
2022-08-11T09:44:29.128Z,65.09
2022-08-11T09:45:01.517Z,64.77
2022-08-11T09:45:40.547Z,64.73
2022-08-11T09:46:13.946Z,64.40
2022-08-11T09:46:49.920Z,64.67
2022-08-11T09:47:28.246Z,63.96
2022-08-11T09:48:02.184Z,64.30
2022-08-11T09:48:41.688Z,64.44
2022-08-11T09:49:14.063Z,64.25
2022-08-11T09:49:51.830Z,64.62
2022-08-11T09:50:26.942Z,64.58
2022-08-11T09:51:03.568Z,64.49
2022-08-11T09:51:38.996Z,64.28
2022-08-11T09:52:14.896Z,64.24
2022-08-11T09:53:16.878Z,63.41
2022-08-11T09:53:47.230Z,63.57
2022-08-11T09:54:39.051Z,63.41
2022-08-11T09:55:14.210Z,63.21
2022-08-11T09:55:48.243Z,63.32
2022-08-11T09:56:39.408Z,63.10
2022-08-11T09:57:27.894Z,62.88
2022-08-11T09:58:42.443Z,62.90
2022-08-11T09:59:11.582Z,62.31
2022-08-11T09:59:46.322Z,61.85
2022-08-11T10:00:18.513Z,61.41
2022-08-11T10:00:54.550Z,61.56
2022-08-11T10:01:31.155Z,61.11
2022-08-11T10:02:09.483Z,61.53
2022-08-11T10:02:45.374Z,61.19
2022-08-11T10:03:25.995Z,60.85
2022-08-11T10:04:04.097Z,60.89
2022-08-11T10:04:40.628Z,60.69
2022-08-11T10:05:32.485Z,60.98
2022-08-11T10:06:34.061Z,60.82
2022-08-11T10:07:10.783Z,61.05
2022-08-11T10:07:50.422Z,60.73
2022-08-11T10:08:28.580Z,60.94
2022-08-11T10:09:05.482Z,60.99
2022-08-11T10:09:42.225Z,61.03
2022-08-11T10:10:14.658Z,60.74
2022-08-11T10:10:50.811Z,60.94
2022-08-11T10:11:24.952Z,60.69
2022-08-11T10:12:00.368Z,60.82
2022-08-11T10:12:37.955Z,60.51
2022-08-11T10:14:30.609Z,60.67
2022-08-11T10:14:33.387Z,60.99
2022-08-11T10:15:26.082Z,60.39
2022-08-11T10:16:15.909Z,60.20
2022-08-11T10:16:50.363Z,59.88
2022-08-11T10:17:23.530Z,60.06